Time,TemperatureF,DewpointF,PressureIn,WindDirection,WindDirectionDegrees,WindSpeedMPH,WindSpeedGustMPH,Humidity,HourlyPrecipIn,Conditions,Clouds,dailyrainin,SolarRadiationWatts/m^2,SoftwareType,DateUTC
2013-02-21 00:00:00,5.6,2.3,30.47,SW,235,0.0,0.0,86,0.00,RA,,0.00,0.0,WeatherDisplay:10.37,2013-02-21 06:00:00,
2013-02-21 00:05:00,5.3,2.0,30.47,SW,235,0.0,0.0,86,0.00,RA,,0.00,0.0,WeatherDisplay:10.37,2013-02-21 06:05:00,
2013-02-21 00:10:00,5.1,1.8,30.47,SW,235,0.0,0.0,86,0.00,CLR,,0.00,0.0,WeatherDisplay:10.37,2013-02-21 06:10:00,
2013-02-21 00:15:00,5.2,2.2,30.47,SW,235,0.0,0.0,87,0.00,CLR,,0.00,0.0,WeatherDisplay:10.37,2013-02-21 06:15:00,
2013-02-21 00:20:00,5.2,2.2,30.47,SW,235,0.0,0.0,87,0.00,CLR,,0.00,0.0,WeatherDisplay:10.37,2013-02-21 06:20:00,
2013-02-21 00:25:00,5.3,2.3,30.47,SW,235,0.0,0.0,87,0.00,CLR,,0.00,0.0,WeatherDisplay:10.37,2013-02-21 06:25:00,
2013-02-21 00:30:00,5.3,2.3,30.47,SW,235,0.0,0.0,87,0.00,CLR,,0.00,0.0,WeatherDisplay:10.37,2013-02-21 06:30:00,
2013-02-21 00:35:00,5.4,2.4,30.47,SW,235,0.0,0.0,87,0.00,CLR,,0.00,0.0,WeatherDisplay:10.37,2013-02-21 06:35:00,
2013-02-21 00:40:00,5.4,2.4,30.47,SW,235,0.0,0.0,87,0.00,CLR,,0.00,0.0,WeatherDisplay:10.37,2013-02-21 06:40:00,
2013-02-21 00:45:00,5.3,2.3,30.47,SW,235,0.0,0.0,87,0.00,CLR,,0.00,0.0,WeatherDisplay:10.37,2013-02-21 06:45:00,
2013-02-21 00:50:00,5.2,2.2,30.47,SW,235,0.0,0.0,87,0.00,CLR,,0.00,0.0,WeatherDisplay:10.37,2013-02-21 06:50:00,
2013-02-21 00:55:00,5.2,2.2,30.47,SW,235,0.0,0.0,87,0.00,CLR,,0.00,0.0,WeatherDisplay:10.37,2013-02-21 06:55:00,
2013-02-21 01:00:00,5.2,2.2,30.47,SW,235,0.0,0.0,87,0.00,CLR,,0.00,0.0,WeatherDisplay:10.37,2013-02-21 07:00:00,
2013-02-21 01:05:00,5.3,2.3,30.47,SW,235,0.0,0.0,87,0.00,CLR,,0.00,0.0,WeatherDisplay:10.37,2013-02-21 07:05:00,
2013-02-21 01:10:00,5.3,2.3,30.47,SW,235,0.0,0.0,87,0.00,CLR,,0.00,0.0,WeatherDisplay:10.37,2013-02-21 07:10:00,
2013-02-21 01:15:00,5.4,2.4,30.47,SW,235,0.0,0.0,87,0.00,CLR,,0.00,0.0,WeatherDisplay:10.37,2013-02-21 07:15:00,
2013-02-21 01:20:00,5.4,2.4,30.46,SW,235,0.0,0.0,87,0.00,CLR,,0.00,0.0,WeatherDisplay:10.37,2013-02-21 07:20:00,
2013-02-21 01:25:00,5.3,2.3,30.46,SW,235,0.0,0.0,87,0.00,CLR,,0.00,0.0,WeatherDisplay:10.37,2013-02-21 07:25:00,
2013-02-21 01:30:00,5.2,2.2,30.46,SW,235,0.0,0.0,87,0.00,CLR,,0.00,0.0,WeatherDisplay:10.37,2013-02-21 07:30:00,
2013-02-21 01:35:00,5.3,2.3,30.47,SW,235,0.0,0.0,87,0.00,CLR,,0.00,0.0,WeatherDisplay:10.37,2013-02-21 07:35:00,
2013-02-21 01:40:00,5.4,2.4,30.46,SW,235,0.0,0.0,87,0.00,CLR,,0.00,0.0,WeatherDisplay:10.37,2013-02-21 07:40:00,
2013-02-21 01:45:00,5.5,2.5,30.46,SW,235,0.0,0.0,87,0.00,CLR,,0.00,0.0,WeatherDisplay:10.37,2013-02-21 07:45:00,
2013-02-21 01:50:00,5.7,2.7,30.46,SW,235,0.0,0.0,87,0.00,CLR,,0.00,0.0,WeatherDisplay:10.37,2013-02-21 07:50:00,
2013-02-21 01:55:00,5.8,2.8,30.47,SW,235,0.0,0.0,87,0.00,CLR,,0.00,0.0,WeatherDisplay:10.37,2013-02-21 07:55:00,
2013-02-21 02:00:00,5.9,2.9,30.47,SW,235,0.0,0.0,87,0.00,CLR,,0.00,0.0,WeatherDisplay:10.37,2013-02-21 08:00:00,
2013-02-21 02:05:00,6.0,3.0,30.47,SW,235,0.0,0.0,87,0.00,CLR,,0.00,0.0,WeatherDisplay:10.37,2013-02-21 08:05:00,
2013-02-21 02:10:00,6.0,3.0,30.47,SW,235,0.0,0.0,87,0.00,CLR,,0.00,0.0,WeatherDisplay:10.37,2013-02-21 08:10:00,
2013-02-21 02:15:00,6.1,3.1,30.47,SW,235,0.0,0.0,87,0.00,CLR,,0.00,0.0,WeatherDisplay:10.37,2013-02-21 08:15:00,
2013-02-21 02:20:00,6.3,3.3,30.47,SW,235,0.0,0.0,87,0.00,CLR,,0.00,0.0,WeatherDisplay:10.37,2013-02-21 08:20:00,
2013-02-21 02:25:00,6.5,3.5,30.47,SW,235,0.0,0.0,87,0.00,CLR,,0.00,0.0,WeatherDisplay:10.37,2013-02-21 08:25:00,
2013-02-21 02:30:00,6.8,4.0,30.47,SW,235,0.0,0.0,88,0.00,CLR,,0.00,0.0,WeatherDisplay:10.37,2013-02-21 08:30:00,
2013-02-21 02:35:00,7.0,4.2,30.47,SW,235,0.0,0.0,88,0.00,CLR,,0.00,0.0,WeatherDisplay:10.37,2013-02-21 08:35:00,
2013-02-21 02:40:00,7.1,4.3,30.47,SW,235,0.0,0.0,88,0.00,CLR,,0.00,0.0,WeatherDisplay:10.37,2013-02-21 08:40:00,
2013-02-21 02:45:00,7.0,3.9,30.47,SW,235,0.0,0.0,87,0.00,CLR,,0.00,0.0,WeatherDisplay:10.37,2013-02-21 08:45:00,
2013-02-21 02:50:00,6.9,3.8,30.47,SW,235,0.0,0.0,87,0.00,CLR,,0.00,0.0,WeatherDisplay:10.37,2013-02-21 08:50:00,
2013-02-21 02:55:00,7.0,4.2,30.47,SW,235,0.0,0.0,88,0.00,CLR,,0.00,0.0,WeatherDisplay:10.37,2013-02-21 08:55:00,
2013-02-21 03:00:00,7.1,4.3,30.47,SW,235,0.0,0.0,88,0.00,CLR,,0.00,0.0,WeatherDisplay:10.37,2013-02-21 09:00:00,
2013-02-21 03:05:00,7.3,4.5,30.47,SW,235,0.0,0.0,88,0.00,CLR,,0.00,0.0,WeatherDisplay:10.37,2013-02-21 09:05:00,
2013-02-21 03:10:00,7.5,4.7,30.47,SW,235,0.0,0.0,88,0.00,CLR,,0.00,0.0,WeatherDisplay:10.37,2013-02-21 09:10:00,
2013-02-21 03:15:00,7.7,4.9,30.47,SW,235,0.0,0.0,88,0.00,CLR,,0.00,0.0,WeatherDisplay:10.37,2013-02-21 09:15:00,
2013-02-21 03:20:00,7.9,5.1,30.46,SW,235,0.0,0.0,88,0.00,CLR,,0.00,0.0,WeatherDisplay:10.37,2013-02-21 09:20:00,
2013-02-21 03:25:00,8.1,5.3,30.47,SW,235,0.0,0.0,88,0.00,CLR,,0.00,0.0,WeatherDisplay:10.37,2013-02-21 09:25:00,
2013-02-21 03:30:00,8.1,5.3,30.47,SW,235,0.0,0.0,88,0.00,CLR,,0.00,0.0,WeatherDisplay:10.37,2013-02-21 09:30:00,
2013-02-21 03:35:00,8.1,5.3,30.47,SW,235,0.0,0.0,88,0.00,CLR,,0.00,0.0,WeatherDisplay:10.37,2013-02-21 09:35:00,
2013-02-21 03:40:00,8.1,5.3,30.47,SW,235,0.0,0.0,88,0.00,CLR,,0.00,0.0,WeatherDisplay:10.37,2013-02-21 09:40:00,
2013-02-21 03:45:00,8.1,5.3,30.47,SW,235,0.0,0.0,88,0.00,CLR,,0.00,0.0,WeatherDisplay:10.37,2013-02-21 09:45:00,
2013-02-21 03:50:00,8.1,5.3,30.47,SW,235,0.0,0.0,88,0.00,CLR,,0.00,0.0,WeatherDisplay:10.37,2013-02-21 09:50:00,
2013-02-21 03:55:00,8.3,5.5,30.48,SW,235,0.0,0.0,88,0.00,CLR,,0.00,0.0,WeatherDisplay:10.37,2013-02-21 09:55:00,
2013-02-21 04:00:00,8.3,5.5,30.48,SW,235,0.0,0.0,88,0.00,CLR,,0.00,0.0,WeatherDisplay:10.37,2013-02-21 10:00:00,
2013-02-21 04:05:00,8.4,5.6,30.48,SW,235,0.0,0.0,88,0.00,CLR,,0.00,0.0,WeatherDisplay:10.37,2013-02-21 10:05:00,
2013-02-21 04:10:00,8.7,5.9,30.48,SW,235,0.0,0.0,88,0.00,CLR,,0.00,0.0,WeatherDisplay:10.37,2013-02-21 10:10:00,
2013-02-21 04:15:00,8.9,6.1,30.49,SW,235,0.0,0.0,88,0.00,CLR,,0.00,0.0,WeatherDisplay:10.37,2013-02-21 10:15:00,
2013-02-21 04:20:00,9.0,6.2,30.49,SW,235,0.0,0.0,88,0.00,CLR,,0.00,0.0,WeatherDisplay:10.37,2013-02-21 10:20:00,
2013-02-21 04:25:00,9.0,6.2,30.49,WSW,256,2.3,0.0,88,0.00,CLR,,0.00,0.0,WeatherDisplay:10.37,2013-02-21 10:25:00,
2013-02-21 04:30:00,9.1,6.3,30.49,WSW,256,0.0,0.0,88,0.00,CLR,,0.00,0.0,WeatherDisplay:10.37,2013-02-21 10:30:00,
2013-02-21 04:35:00,9.3,6.5,30.50,West,259,0.0,0.0,88,0.00,CLR,,0.00,0.0,WeatherDisplay:10.37,2013-02-21 10:35:00,
2013-02-21 04:40:00,9.6,6.8,30.50,West,259,0.0,0.0,88,0.00,CLR,,0.00,0.0,WeatherDisplay:10.37,2013-02-21 10:40:00,
2013-02-21 04:45:00,9.7,6.9,30.50,West,259,0.0,0.0,88,0.00,CLR,,0.00,0.0,WeatherDisplay:10.37,2013-02-21 10:45:00,
2013-02-21 04:50:00,9.8,7.0,30.50,West,259,0.0,0.0,88,0.00,CLR,,0.00,0.0,WeatherDisplay:10.37,2013-02-21 10:50:00,
2013-02-21 04:55:00,9.9,7.1,30.50,West,259,0.0,0.0,88,0.00,CLR,,0.00,0.0,WeatherDisplay:10.37,2013-02-21 10:55:00,
2013-02-21 05:00:00,10.0,7.2,30.50,West,259,0.0,0.0,88,0.00,CLR,,0.00,0.0,WeatherDisplay:10.37,2013-02-21 11:00:00,
2013-02-21 05:05:00,10.0,7.2,30.50,West,266,2.3,2.3,88,0.00,CLR,,0.00,0.0,WeatherDisplay:10.37,2013-02-21 11:05:00,
2013-02-21 05:10:00,10.0,7.2,30.50,West,266,0.0,0.0,88,0.00,CLR,,0.00,0.0,WeatherDisplay:10.37,2013-02-21 11:10:00,
2013-02-21 05:15:00,10.0,7.2,30.50,West,271,0.0,0.0,88,0.00,CLR,,0.00,0.0,WeatherDisplay:10.37,2013-02-21 11:15:00,
2013-02-21 05:20:00,10.0,7.2,30.50,West,273,0.0,0.0,88,0.00,CLR,,0.00,0.0,WeatherDisplay:10.37,2013-02-21 11:20:00,
2013-02-21 05:25:00,10.1,7.3,30.50,West,273,0.0,0.0,88,0.00,CLR,,0.00,0.0,WeatherDisplay:10.37,2013-02-21 11:25:00,
2013-02-21 05:30:00,10.1,7.0,30.49,NW,306,2.3,0.0,87,0.00,CLR,,0.00,0.0,WeatherDisplay:10.37,2013-02-21 11:30:00,
2013-02-21 05:35:00,10.1,7.0,30.49,WNW,294,1.1,1.1,87,0.00,CLR,,0.00,0.0,WeatherDisplay:10.37,2013-02-21 11:35:00,
2013-02-21 05:40:00,10.0,6.9,30.48,NW,313,0.0,0.0,87,0.00,CLR,,0.00,0.0,WeatherDisplay:10.37,2013-02-21 11:40:00,
2013-02-21 05:45:00,10.0,6.9,30.47,NW,313,0.0,0.0,87,0.00,CLR,,0.00,0.0,WeatherDisplay:10.37,2013-02-21 11:45:00,
2013-02-21 05:50:00,10.0,6.9,30.46,NNW,342,0.0,0.0,87,0.00,CLR,,0.00,0.0,WeatherDisplay:10.37,2013-02-21 11:50:00,
2013-02-21 05:55:00,9.9,6.8,30.45,NNW,342,0.0,0.0,87,0.00,CLR,,0.00,0.0,WeatherDisplay:10.37,2013-02-21 11:55:00,
2013-02-21 06:00:00,9.8,6.7,30.45,NNW,342,0.0,0.0,87,0.00,CLR,,0.00,0.0,WeatherDisplay:10.37,2013-02-21 12:00:00,
2013-02-21 06:05:00,9.8,6.7,30.45,NNW,331,0.0,0.0,87,0.00,CLR,,0.00,0.0,WeatherDisplay:10.37,2013-02-21 12:05:00,
2013-02-21 06:10:00,9.7,6.6,30.44,NW,321,0.0,0.0,87,0.00,CLR,,0.00,0.0,WeatherDisplay:10.37,2013-02-21 12:10:00,
2013-02-21 06:15:00,9.7,6.6,30.43,NW,321,0.0,0.0,87,0.00,OVC,,0.00,0.0,WeatherDisplay:10.37,2013-02-21 12:15:00,
2013-02-21 06:20:00,9.8,6.7,30.43,NW,323,0.0,0.0,87,0.00,OVC,,0.00,0.0,WeatherDisplay:10.37,2013-02-21 12:20:00,
2013-02-21 06:25:00,9.9,6.8,30.42,NNE,31,0.0,0.0,87,0.00,OVC,,0.00,0.0,WeatherDisplay:10.37,2013-02-21 12:25:00,
2013-02-21 06:30:00,10.0,6.9,30.43,NNE,27,0.0,0.0,87,0.00,OVC,,0.00,0.0,WeatherDisplay:10.37,2013-02-21 12:30:00,
2013-02-21 06:35:00,10.0,6.9,30.46,NNE,27,1.1,0.0,87,0.00,OVC,,0.00,0.0,WeatherDisplay:10.37,2013-02-21 12:35:00,
2013-02-21 06:40:00,10.0,6.9,30.48,NNE,27,0.0,0.0,87,0.00,OVC,,0.00,0.0,WeatherDisplay:10.37,2013-02-21 12:40:00,
2013-02-21 06:45:00,10.1,7.0,30.49,NNE,27,0.0,0.0,87,0.00,OVC,,0.00,0.0,WeatherDisplay:10.37,2013-02-21 12:45:00,
2013-02-21 06:50:00,10.2,7.1,30.49,NNE,27,0.0,0.0,87,0.00,OVC,,0.00,0.0,WeatherDisplay:10.37,2013-02-21 12:50:00,
2013-02-21 06:55:00,10.4,7.3,30.48,NNE,27,0.0,0.0,87,0.00,OVC,,0.00,0.0,WeatherDisplay:10.37,2013-02-21 12:55:00,
2013-02-21 07:00:00,10.5,7.4,30.48,NNE,27,0.0,0.0,87,0.00,OVC,,0.00,0.0,WeatherDisplay:10.37,2013-02-21 13:00:00,
2013-02-21 07:05:00,10.6,7.5,30.48,NNE,27,0.0,0.0,87,0.00,BKN,,0.00,5.0,WeatherDisplay:10.37,2013-02-21 13:05:00,
2013-02-21 07:10:00,10.7,7.6,30.48,NNE,27,0.0,0.0,87,0.00,BKN,,0.00,5.0,WeatherDisplay:10.37,2013-02-21 13:10:00,
2013-02-21 07:15:00,10.9,7.8,30.48,NNE,27,0.0,0.0,87,0.00,BKN,,0.00,7.0,WeatherDisplay:10.37,2013-02-21 13:15:00,
2013-02-21 07:20:00,11.2,8.3,30.48,NNE,27,0.0,0.0,88,0.00,BKN,,0.00,7.0,WeatherDisplay:10.37,2013-02-21 13:20:00,
2013-02-21 07:25:00,11.5,8.6,30.49,NNE,27,0.0,0.0,88,0.00,BKN,,0.00,7.0,WeatherDisplay:10.37,2013-02-21 13:25:00,
2013-02-21 07:30:00,11.8,8.9,30.49,NNE,27,0.0,0.0,88,0.00,BKN,,0.00,7.0,WeatherDisplay:10.37,2013-02-21 13:30:00,
2013-02-21 07:35:00,12.0,9.1,30.50,NNE,27,0.0,0.0,88,0.00,BKN,,0.00,9.0,WeatherDisplay:10.37,2013-02-21 13:35:00,
2013-02-21 07:40:00,12.2,9.3,30.50,NNE,27,0.0,0.0,88,0.00,BKN,,0.00,9.0,WeatherDisplay:10.37,2013-02-21 13:40:00,
2013-02-21 07:45:00,12.5,9.6,30.49,NNE,27,0.0,0.0,88,0.00,BKN,,0.00,14.0,WeatherDisplay:10.37,2013-02-21 13:45:00,
2013-02-21 07:50:00,12.8,9.9,30.49,NNE,27,0.0,0.0,88,0.00,BKN,,0.00,14.0,WeatherDisplay:10.37,2013-02-21 13:50:00,
2013-02-21 07:55:00,13.2,10.3,30.48,NNE,27,0.0,0.0,88,0.00,BKN,,0.00,16.0,WeatherDisplay:10.37,2013-02-21 13:55:00,
2013-02-21 08:00:00,13.4,10.5,30.47,NNE,27,1.1,0.0,88,0.00,BKN,,0.00,16.0,WeatherDisplay:10.37,2013-02-21 14:00:00,
2013-02-21 08:05:00,13.5,10.6,30.48,NNE,27,3.5,0.0,88,0.00,BKN,,0.00,18.0,WeatherDisplay:10.37,2013-02-21 14:05:00,
2013-02-21 08:10:00,13.5,10.6,30.48,NNE,27,0.0,0.0,88,0.00,BKN,,0.00,19.0,WeatherDisplay:10.37,2013-02-21 14:10:00,
2013-02-21 08:15:00,13.6,10.7,30.49,NNE,27,0.0,0.0,88,0.00,BKN,,0.00,21.0,WeatherDisplay:10.37,2013-02-21 14:15:00,
2013-02-21 08:20:00,13.7,10.8,30.49,NNE,27,0.0,0.0,88,0.00,BKN,,0.00,23.0,WeatherDisplay:10.37,2013-02-21 14:20:00,
2013-02-21 08:25:00,13.9,10.7,30.49,NNE,27,0.0,0.0,87,0.00,BKN,,0.00,37.0,WeatherDisplay:10.37,2013-02-21 14:25:00,
2013-02-21 08:30:00,14.2,11.3,30.50,NNE,27,0.0,0.0,88,0.00,BKN,,0.00,25.0,WeatherDisplay:10.37,2013-02-21 14:30:00,
2013-02-21 08:35:00,14.4,11.2,30.50,NNE,27,0.0,0.0,87,0.00,BKN,,0.00,18.0,WeatherDisplay:10.37,2013-02-21 14:35:00,
2013-02-21 08:40:00,14.9,12.0,30.50,NNE,27,0.0,0.0,88,0.00,BKN,,0.00,25.0,WeatherDisplay:10.37,2013-02-21 14:40:00,
2013-02-21 08:45:00,15.2,12.0,30.49,NNE,27,0.0,0.0,87,0.00,BKN,,0.00,21.0,WeatherDisplay:10.37,2013-02-21 14:45:00,
2013-02-21 08:50:00,15.5,12.3,30.49,NNE,27,0.0,0.0,87,0.00,BKN,,0.00,28.0,WeatherDisplay:10.37,2013-02-21 14:50:00,
2013-02-21 08:55:00,15.7,12.5,30.49,NNE,27,0.0,0.0,87,0.00,BKN,,0.00,30.0,WeatherDisplay:10.37,2013-02-21 14:55:00,
2013-02-21 09:00:00,16.0,12.8,30.48,NNE,27,2.3,0.0,87,0.00,BKN,,0.00,26.0,WeatherDisplay:10.37,2013-02-21 15:00:00,
2013-02-21 09:05:00,16.6,13.4,30.48,NNE,27,0.0,0.0,87,0.00,BKN,,0.00,26.0,WeatherDisplay:10.37,2013-02-21 15:05:00,
2013-02-21 09:10:00,17.1,13.9,30.48,NNE,27,0.0,0.0,87,0.00,BKN,,0.00,23.0,WeatherDisplay:10.37,2013-02-21 15:10:00,
2013-02-21 09:15:00,17.4,14.2,30.47,NNE,27,0.0,0.0,87,0.00,BKN,,0.00,23.0,WeatherDisplay:10.37,2013-02-21 15:15:00,
2013-02-21 09:20:00,17.8,14.6,30.46,NNE,27,0.0,0.0,87,0.00,BKN,,0.00,21.0,WeatherDisplay:10.37,2013-02-21 15:20:00,
2013-02-21 09:26:00,18.1,14.9,30.47,NNE,27,0.0,0.0,87,0.00,BKN,,0.00,21.0,WeatherDisplay:10.37,2013-02-21 15:26:00,
2013-02-21 09:31:00,18.3,14.8,30.46,NNE,27,0.0,0.0,86,0.00,OVC,,0.00,23.0,WeatherDisplay:10.37,2013-02-21 15:31:00,
2013-02-21 09:36:00,18.5,15.0,30.46,NNE,27,0.0,0.0,86,0.00,BKN,,0.00,25.0,WeatherDisplay:10.37,2013-02-21 15:36:00,
2013-02-21 09:41:00,18.5,15.0,30.47,NNE,27,2.3,2.3,86,0.00,BKN,,0.00,25.0,WeatherDisplay:10.37,2013-02-21 15:41:00,
2013-02-21 09:46:00,18.5,15.0,30.46,NNE,27,0.0,0.0,86,0.00,BKN,,0.00,23.0,WeatherDisplay:10.37,2013-02-21 15:46:00,
2013-02-21 09:51:00,18.7,15.2,30.47,NNE,27,0.0,0.0,86,0.00,BKN,,0.00,23.0,WeatherDisplay:10.37,2013-02-21 15:51:00,
2013-02-21 09:56:00,18.6,14.8,30.47,NW,314,0.0,0.0,85,0.00,OVC,,0.00,23.0,WeatherDisplay:10.37,2013-02-21 15:56:00,
2013-02-21 10:01:00,18.6,14.8,30.47,NNE,19,0.0,0.0,85,0.00,OVC,,0.00,21.0,WeatherDisplay:10.37,2013-02-21 16:01:00,
2013-02-21 10:06:00,18.7,14.9,30.48,NNE,20,0.0,0.0,85,0.00,OVC,,0.00,21.0,WeatherDisplay:10.37,2013-02-21 16:06:00,
2013-02-21 10:11:00,19.0,15.2,30.48,WSW,242,0.0,0.0,85,0.00,OVC,,0.00,23.0,WeatherDisplay:10.37,2013-02-21 16:11:00,
2013-02-21 10:16:00,18.9,15.1,30.47,WSW,245,0.0,0.0,85,0.00,OVC,,0.00,19.0,WeatherDisplay:10.37,2013-02-21 16:16:00,
2013-02-21 10:21:00,19.0,15.2,30.46,WSW,245,0.0,0.0,85,0.00,OVC,,0.00,21.0,WeatherDisplay:10.37,2013-02-21 16:21:00,
2013-02-21 10:26:00,19.1,15.3,30.46,West,281,2.3,2.3,85,0.00,OVC,,0.00,23.0,WeatherDisplay:10.37,2013-02-21 16:26:00,
2013-02-21 10:31:00,19.1,15.3,30.46,West,279,0.0,0.0,85,0.00,OVC,,0.00,21.0,WeatherDisplay:10.37,2013-02-21 16:31:00,
2013-02-21 10:36:00,19.1,15.3,30.47,WSW,251,2.3,2.3,85,0.00,OVC,,0.00,21.0,WeatherDisplay:10.37,2013-02-21 16:36:00,
2013-02-21 10:41:00,19.1,15.3,30.47,WNW,291,0.0,0.0,85,0.00,OVC,,0.00,21.0,WeatherDisplay:10.37,2013-02-21 16:41:00,
2013-02-21 10:46:00,19.0,15.2,30.47,WNW,291,0.0,0.0,85,0.00,OVC,,0.00,25.0,WeatherDisplay:10.37,2013-02-21 16:46:00,
2013-02-21 10:51:00,19.0,15.2,30.47,West,281,2.3,2.3,85,0.00,OVC,,0.00,23.0,WeatherDisplay:10.37,2013-02-21 16:51:00,
2013-02-21 10:56:00,19.0,15.2,30.47,WSW,247,2.3,2.3,85,0.00,OVC,,0.00,23.0,WeatherDisplay:10.37,2013-02-21 16:56:00,
2013-02-21 11:01:00,19.1,15.3,30.47,WSW,248,0.0,0.0,85,0.00,OVC,,0.00,25.0,WeatherDisplay:10.37,2013-02-21 17:01:00,
2013-02-21 11:06:00,19.2,15.4,30.47,NNW,331,2.3,2.3,85,0.00,OVC,,0.00,26.0,WeatherDisplay:10.37,2013-02-21 17:06:00,
2013-02-21 11:11:00,19.4,15.6,30.47,NNW,327,0.0,0.0,85,0.00,OVC,,0.00,28.0,WeatherDisplay:10.37,2013-02-21 17:11:00,
2013-02-21 11:16:00,19.4,15.6,30.46,SW,224,0.0,0.0,85,0.00,OVC,,0.00,28.0,WeatherDisplay:10.37,2013-02-21 17:16:00,
2013-02-21 11:21:00,19.5,15.7,30.45,SW,229,0.0,0.0,85,0.00,OVC,,0.00,30.0,WeatherDisplay:10.37,2013-02-21 17:21:00,
2013-02-21 11:26:00,19.7,15.9,30.45,West,263,0.0,0.0,85,0.00,OVC,,0.00,28.0,WeatherDisplay:10.37,2013-02-21 17:26:00,
2013-02-21 11:31:00,19.6,15.6,30.44,NNW,336,1.1,1.1,84,0.00,OVC,,0.00,28.0,WeatherDisplay:10.37,2013-02-21 17:31:00,
2013-02-21 11:36:00,19.8,15.7,30.44,NNW,336,1.1,0.0,84,0.00,OVC,,0.00,28.0,WeatherDisplay:10.37,2013-02-21 17:36:00,
2013-02-21 11:41:00,19.8,15.7,30.44,NW,320,0.0,0.0,84,0.00,OVC,,0.00,25.0,WeatherDisplay:10.37,2013-02-21 17:41:00,
2013-02-21 11:46:00,19.8,15.7,30.44,WNW,282,3.5,3.5,84,0.00,OVC,,0.00,25.0,WeatherDisplay:10.37,2013-02-21 17:46:00,
2013-02-21 11:51:00,19.8,15.7,30.44,WNW,282,0.0,0.0,84,0.00,OVC,,0.00,26.0,WeatherDisplay:10.37,2013-02-21 17:51:00,
2013-02-21 11:56:00,20.1,16.0,30.43,WNW,282,0.0,0.0,84,0.00,OVC,,0.00,30.0,WeatherDisplay:10.37,2013-02-21 17:56:00,
2013-02-21 12:01:00,20.3,16.2,30.42,North,352,0.0,0.0,84,0.00,OVC,,0.00,28.0,WeatherDisplay:10.37,2013-02-21 18:01:00,
2013-02-21 12:06:00,20.4,16.3,30.41,WNW,284,1.1,1.1,84,0.00,OVC,,0.00,33.0,WeatherDisplay:10.37,2013-02-21 18:06:00,
2013-02-21 12:11:00,20.5,16.4,30.40,WSW,237,2.3,2.3,84,0.00,OVC,,0.00,30.0,WeatherDisplay:10.37,2013-02-21 18:11:00,
2013-02-21 12:16:00,20.5,16.4,30.40,NNE,15,3.5,3.5,84,0.00,OVC,,0.00,32.0,WeatherDisplay:10.37,2013-02-21 18:16:00,
2013-02-21 12:21:00,20.6,16.5,30.39,NNE,15,0.0,0.0,84,0.00,OVC,,0.00,37.0,WeatherDisplay:10.37,2013-02-21 18:21:00,
2013-02-21 12:26:00,21.0,16.9,30.39,West,279,2.3,2.3,84,0.00,BKN,,0.00,37.0,WeatherDisplay:10.37,2013-02-21 18:26:00,
2013-02-21 12:31:00,21.2,17.1,30.39,NNW,347,2.3,2.3,84,0.00,BKN,,0.00,37.0,WeatherDisplay:10.37,2013-02-21 18:31:00,
2013-02-21 12:36:00,21.4,17.3,30.39,North,358,0.0,0.0,84,0.00,BKN,,0.00,33.0,WeatherDisplay:10.37,2013-02-21 18:36:00,
2013-02-21 12:41:00,21.7,17.6,30.39,NW,317,1.1,1.1,84,0.00,BKN,,0.00,32.0,WeatherDisplay:10.37,2013-02-21 18:41:00,
2013-02-21 12:46:00,21.9,17.8,30.39,NW,315,2.3,2.3,84,0.00,OVC,,0.00,30.0,WeatherDisplay:10.37,2013-02-21 18:46:00,
2013-02-21 12:51:00,22.2,18.1,30.39,NW,308,3.5,3.5,84,0.00,OVC,,0.00,30.0,WeatherDisplay:10.37,2013-02-21 18:51:00,
2013-02-21 12:56:00,22.3,18.2,30.38,NW,308,0.0,0.0,84,0.00,OVC,,0.00,32.0,WeatherDisplay:10.37,2013-02-21 18:56:00,
2013-02-21 13:01:00,22.6,18.5,30.38,NNE,17,3.5,3.5,84,0.00,OVC,,0.00,30.0,WeatherDisplay:10.37,2013-02-21 19:01:00,
2013-02-21 13:06:00,22.9,18.8,30.37,North,360,1.1,0.0,84,0.00,OVC,,0.00,32.0,WeatherDisplay:10.37,2013-02-21 19:06:00,
2013-02-21 13:11:00,23.0,18.9,30.37,North,360,1.1,1.1,84,0.00,OVC,,0.00,25.0,WeatherDisplay:10.37,2013-02-21 19:11:00,
2013-02-21 13:16:00,23.2,19.1,30.36,North,352,0.0,0.0,84,0.00,OVC,,0.00,25.0,WeatherDisplay:10.37,2013-02-21 19:16:00,
2013-02-21 13:21:00,23.4,19.3,30.36,NNW,347,2.3,2.3,84,0.00,OVC,,0.00,23.0,WeatherDisplay:10.37,2013-02-21 19:21:00,
2013-02-21 13:26:00,23.6,19.5,30.36,NNW,347,3.5,3.5,84,0.00,OVC,,0.00,23.0,WeatherDisplay:10.37,2013-02-21 19:26:00,
2013-02-21 13:31:00,23.8,19.9,30.35,North,8,0.0,0.0,85,0.00,OVC,,0.00,23.0,WeatherDisplay:10.37,2013-02-21 19:31:00,
2013-02-21 13:36:00,24.1,20.2,30.35,North,4,2.3,2.3,85,0.00,OVC,,0.00,23.0,WeatherDisplay:10.37,2013-02-21 19:36:00,
2013-02-21 13:41:00,24.4,20.8,30.33,North,3,0.0,0.0,86,0.00,OVC,,0.00,23.0,WeatherDisplay:10.37,2013-02-21 19:41:00,
2013-02-21 13:46:00,24.6,21.0,30.33,NNW,342,1.1,1.1,86,0.00,OVC,,0.00,21.0,WeatherDisplay:10.37,2013-02-21 19:46:00,
2013-02-21 13:51:00,24.8,21.2,30.32,NNE,33,2.3,2.3,86,0.00,OVC,,0.00,21.0,WeatherDisplay:10.37,2013-02-21 19:51:00,
2013-02-21 13:56:00,24.8,21.2,30.31,NNE,28,4.0,4.0,86,0.00,OVC,,0.00,21.0,WeatherDisplay:10.37,2013-02-21 19:56:00,
2013-02-21 14:01:00,24.8,21.5,30.31,NNW,329,2.3,2.3,87,0.00,OVC,,0.00,21.0,WeatherDisplay:10.37,2013-02-21 20:01:00,
2013-02-21 14:06:00,24.8,21.5,30.31,NE,39,0.0,0.0,87,0.00,OVC,,0.00,23.0,WeatherDisplay:10.37,2013-02-21 20:06:00,
2013-02-21 14:11:00,24.6,21.3,30.33,NNE,23,3.5,3.5,87,0.00,OVC,,0.00,19.0,WeatherDisplay:10.37,2013-02-21 20:11:00,
2013-02-21 14:16:00,24.7,21.4,30.33,NNE,27,3.5,3.5,87,0.00,OVC,,0.00,18.0,WeatherDisplay:10.37,2013-02-21 20:16:00,
2013-02-21 14:21:00,24.8,21.5,30.33,NNE,19,3.5,3.5,87,0.00,OVC,,0.00,16.0,WeatherDisplay:10.37,2013-02-21 20:21:00,
2013-02-21 14:26:00,24.8,21.5,30.33,NNE,19,0.0,0.0,87,0.00,OVC,,0.00,14.0,WeatherDisplay:10.37,2013-02-21 20:26:00,
2013-02-21 14:31:00,24.9,21.6,30.33,NNE,21,2.3,2.3,87,0.00,OVC,,0.00,12.0,WeatherDisplay:10.37,2013-02-21 20:31:00,
2013-02-21 14:36:00,25.0,21.9,30.33,WNW,302,1.1,1.1,88,0.00,OVC,,0.00,12.0,WeatherDisplay:10.37,2013-02-21 20:36:00,
2013-02-21 14:41:00,25.0,21.9,30.33,NNE,16,1.1,1.1,88,0.00,OVC,,0.00,12.0,WeatherDisplay:10.37,2013-02-21 20:41:00,
2013-02-21 14:46:00,24.9,21.8,30.34,NNE,15,3.5,3.5,88,0.00,OVC,,0.00,12.0,WeatherDisplay:10.37,2013-02-21 20:46:00,
2013-02-21 14:51:00,24.9,21.8,30.33,NNE,29,0.0,0.0,88,0.00,OVC,,0.00,11.0,WeatherDisplay:10.37,2013-02-21 20:51:00,
2013-02-21 14:56:00,24.9,21.8,30.34,NNE,28,0.0,0.0,88,0.00,OVC,,0.00,11.0,WeatherDisplay:10.37,2013-02-21 20:56:00,
2013-02-21 15:01:00,25.0,22.2,30.34,NNE,28,0.0,0.0,89,0.00,OVC,,0.00,11.0,WeatherDisplay:10.37,2013-02-21 21:01:00,
2013-02-21 15:06:00,25.1,22.3,30.33,West,278,0.0,0.0,89,0.00,OVC,,0.00,11.0,WeatherDisplay:10.37,2013-02-21 21:06:00,
2013-02-21 15:11:00,25.2,22.4,30.34,NNE,25,4.0,4.0,89,0.00,OVC,,0.00,9.0,WeatherDisplay:10.37,2013-02-21 21:11:00,
2013-02-21 15:16:00,25.2,22.4,30.34,NNE,25,0.0,0.0,89,0.00,OVC,,0.00,11.0,WeatherDisplay:10.37,2013-02-21 21:16:00,
2013-02-21 15:21:00,25.3,22.5,30.34,NNE,25,2.3,2.3,89,0.00,OVC,,0.00,9.0,WeatherDisplay:10.37,2013-02-21 21:21:00,
2013-02-21 15:26:00,25.4,22.6,30.34,NNE,23,4.6,4.6,89,0.00,OVC,,0.00,9.0,WeatherDisplay:10.37,2013-02-21 21:26:00,
2013-02-21 15:31:00,25.5,22.7,30.34,NNE,19,4.6,4.6,89,0.00,OVC,,0.00,9.0,WeatherDisplay:10.37,2013-02-21 21:31:00,
2013-02-21 15:36:00,25.5,23.0,30.34,North,1,5.8,5.8,90,0.00,OVC,,0.00,9.0,WeatherDisplay:10.37,2013-02-21 21:36:00,
2013-02-21 15:41:00,25.5,23.0,30.33,NNE,28,3.5,3.5,90,0.00,OVC,,0.00,7.0,WeatherDisplay:10.37,2013-02-21 21:41:00,
2013-02-21 15:46:00,25.6,23.1,30.33,NE,36,4.6,4.6,90,0.00,OVC,,0.00,7.0,WeatherDisplay:10.37,2013-02-21 21:46:00,
2013-02-21 15:51:00,25.5,23.0,30.33,NE,46,3.5,3.5,90,0.00,OVC,,0.00,7.0,WeatherDisplay:10.37,2013-02-21 21:51:00,
2013-02-21 15:56:00,25.5,23.0,30.33,NNE,16,6.0,6.0,90,0.00,OVC,,0.00,7.0,WeatherDisplay:10.37,2013-02-21 21:56:00,
2013-02-21 16:01:00,25.5,23.0,30.32,North,8,3.5,3.5,90,0.00,OVC,,0.00,7.0,WeatherDisplay:10.37,2013-02-21 22:01:00,
2013-02-21 16:06:00,25.5,23.2,30.31,North,11,3.5,3.5,91,0.00,OVC,,0.00,5.0,WeatherDisplay:10.37,2013-02-21 22:06:00,
2013-02-21 16:11:00,25.5,23.2,30.31,North,5,2.3,2.3,91,0.00,OVC,,0.00,5.0,WeatherDisplay:10.37,2013-02-21 22:11:00,
2013-02-21 16:16:00,25.4,23.1,30.31,NNE,19,3.5,3.5,91,0.00,OVC,,0.00,5.0,WeatherDisplay:10.37,2013-02-21 22:16:00,
2013-02-21 16:21:00,25.4,23.1,30.31,NNE,33,3.5,3.5,91,0.00,OVC,,0.00,5.0,WeatherDisplay:10.37,2013-02-21 22:21:00,
2013-02-21 16:26:00,25.5,23.2,30.31,NE,47,6.0,6.0,91,0.00,OVC,,0.00,5.0,WeatherDisplay:10.37,2013-02-21 22:26:00,
2013-02-21 16:31:00,25.7,23.4,30.31,NNE,16,9.2,9.2,91,0.00,OVC,,0.00,5.0,WeatherDisplay:10.37,2013-02-21 22:31:00,
2013-02-21 16:36:00,25.8,23.5,30.31,NW,316,10.4,10.4,91,0.00,OVC,,0.00,0.0,WeatherDisplay:10.37,2013-02-21 22:36:00,
2013-02-21 16:41:00,25.8,23.5,30.31,NE,36,11.5,11.5,91,0.00,OVC,,0.00,0.0,WeatherDisplay:10.37,2013-02-21 22:41:00,
2013-02-21 16:46:00,25.9,23.4,30.31,NE,35,9.2,9.2,90,0.00,OVC,,0.00,0.0,WeatherDisplay:10.37,2013-02-21 22:46:00,
2013-02-21 16:51:00,25.8,23.3,30.31,NE,34,5.0,5.0,90,0.00,OVC,,0.00,0.0,WeatherDisplay:10.37,2013-02-21 22:51:00,
2013-02-21 16:56:00,25.8,23.3,30.31,NNE,31,9.2,9.2,90,0.00,OVC,,0.00,0.0,WeatherDisplay:10.37,2013-02-21 22:56:00,
2013-02-21 17:01:00,25.8,23.3,30.31,NNE,29,9.2,9.2,90,0.00,OVC,,0.00,0.0,WeatherDisplay:10.37,2013-02-21 23:01:00,
2013-02-21 17:06:00,25.7,23.2,30.31,NE,36,10.0,10.0,90,0.00,OVC,,0.00,0.0,WeatherDisplay:10.37,2013-02-21 23:06:00,
2013-02-21 17:11:00,25.6,22.8,30.30,NNE,29,10.0,10.0,89,0.00,OVC,,0.00,0.0,WeatherDisplay:10.37,2013-02-21 23:11:00,
2013-02-21 17:16:00,25.5,22.7,30.30,North,6,12.7,12.7,89,0.00,OVC,,0.00,0.0,WeatherDisplay:10.37,2013-02-21 23:16:00,
2013-02-21 17:21:00,25.5,22.7,30.30,NNE,33,9.2,9.2,89,0.00,OVC,,0.00,0.0,WeatherDisplay:10.37,2013-02-21 23:21:00,
2013-02-21 17:26:00,25.4,22.6,30.30,NNE,31,11.5,11.5,89,0.00,OVC,,0.00,0.0,WeatherDisplay:10.37,2013-02-21 23:26:00,
2013-02-21 17:31:00,25.3,22.5,30.30,NNE,30,10.4,10.4,89,0.00,OVC,,0.00,0.0,WeatherDisplay:10.37,2013-02-21 23:31:00,
2013-02-21 17:36:00,25.3,22.5,30.30,NNE,28,5.0,5.0,89,0.00,OVC,,0.00,0.0,WeatherDisplay:10.37,2013-02-21 23:36:00,
2013-02-21 17:41:00,25.2,22.4,30.29,NNE,17,11.5,11.5,89,0.00,OVC,,0.00,0.0,WeatherDisplay:10.37,2013-02-21 23:41:00,
2013-02-21 17:46:00,25.2,22.4,30.28,NNE,31,11.5,11.5,89,0.00,OVC,,0.00,0.0,WeatherDisplay:10.37,2013-02-21 23:46:00,
2013-02-21 17:51:00,25.2,22.4,30.28,NNE,22,5.8,5.8,89,0.00,OVC,,0.00,0.0,WeatherDisplay:10.37,2013-02-21 23:51:00,
2013-02-21 17:56:00,25.1,22.3,30.28,NNE,31,6.9,6.9,89,0.00,OVC,,0.00,0.0,WeatherDisplay:10.37,2013-02-21 23:56:00,
2013-02-21 18:01:00,25.1,22.3,30.27,NE,36,11.5,11.5,89,0.00,CLR,,0.00,0.0,WeatherDisplay:10.37,2013-02-22 00:01:00,
2013-02-21 18:06:00,25.1,22.3,30.27,NE,40,11.5,11.5,89,0.00,CLR,,0.00,0.0,WeatherDisplay:10.37,2013-02-22 00:06:00,
2013-02-21 18:11:00,25.2,22.4,30.27,NNE,29,10.4,10.4,89,0.00,CLR,,0.00,0.0,WeatherDisplay:10.37,2013-02-22 00:11:00,
2013-02-21 18:16:00,25.2,22.4,30.28,NNE,12,5.8,5.8,89,0.00,CLR,,0.00,0.0,WeatherDisplay:10.37,2013-02-22 00:16:00,
2013-02-21 18:21:00,25.2,22.4,30.28,NNE,17,4.6,4.6,89,0.00,CLR,,0.00,0.0,WeatherDisplay:10.37,2013-02-22 00:21:00,
2013-02-21 18:26:00,25.2,22.4,30.28,NE,35,5.8,5.8,89,0.00,CLR,,0.00,0.0,WeatherDisplay:10.37,2013-02-22 00:26:00,
2013-02-21 18:31:00,25.3,22.5,30.27,NNE,33,10.4,10.4,89,0.00,CLR,,0.00,0.0,WeatherDisplay:10.37,2013-02-22 00:31:00,
2013-02-21 18:36:00,25.3,22.5,30.27,NNE,31,5.0,5.0,89,0.00,CLR,,0.00,0.0,WeatherDisplay:10.37,2013-02-22 00:36:00,
2013-02-21 18:41:00,25.4,22.3,30.27,NNE,31,5.8,5.8,88,0.00,CLR,,0.00,0.0,WeatherDisplay:10.37,2013-02-22 00:41:00,
2013-02-21 18:46:00,25.5,22.4,30.27,NE,36,4.6,4.6,88,0.00,CLR,,0.00,0.0,WeatherDisplay:10.37,2013-02-22 00:46:00,
2013-02-21 18:51:00,25.5,22.4,30.27,NE,36,11.5,11.5,88,0.00,CLR,,0.00,0.0,WeatherDisplay:10.37,2013-02-22 00:51:00,
2013-02-21 18:56:00,25.6,22.5,30.27,NE,47,6.0,6.0,88,0.00,CLR,,0.00,0.0,WeatherDisplay:10.37,2013-02-22 00:56:00,
2013-02-21 19:01:00,25.7,22.6,30.27,NNE,27,8.1,8.1,88,0.00,CLR,,0.00,0.0,WeatherDisplay:10.37,2013-02-22 01:01:00,
2013-02-21 19:06:00,25.7,22.6,30.27,NNE,31,6.9,6.9,88,0.00,CLR,,0.00,0.0,WeatherDisplay:10.37,2013-02-22 01:06:00,
2013-02-21 19:11:00,25.7,22.6,30.27,North,4,5.8,5.8,88,0.00,CLR,,0.00,0.0,WeatherDisplay:10.37,2013-02-22 01:11:00,
2013-02-21 19:16:00,25.8,22.7,30.26,NE,36,6.9,6.9,88,0.00,CLR,,0.00,0.0,WeatherDisplay:10.37,2013-02-22 01:16:00,
2013-02-21 19:21:00,25.8,22.7,30.26,NNE,20,6.9,6.9,88,0.00,CLR,,0.00,0.0,WeatherDisplay:10.37,2013-02-22 01:21:00,
2013-02-21 19:26:00,25.9,22.8,30.25,NE,44,12.7,12.7,88,0.00,CLR,,0.00,0.0,WeatherDisplay:10.37,2013-02-22 01:26:00,
2013-02-21 19:31:00,25.9,22.8,30.24,NNE,31,7.0,7.0,88,0.00,CLR,,0.00,0.0,WeatherDisplay:10.37,2013-02-22 01:31:00,
2013-02-21 19:36:00,25.9,22.6,30.23,NE,37,6.9,6.9,87,0.00,CLR,,0.00,0.0,WeatherDisplay:10.37,2013-02-22 01:36:00,
2013-02-21 19:41:00,25.9,22.6,30.22,NE,39,9.2,9.2,87,0.00,CLR,,0.00,0.0,WeatherDisplay:10.37,2013-02-22 01:41:00,
2013-02-21 19:46:00,25.9,22.6,30.22,NNE,32,6.9,6.9,87,0.00,CLR,,0.00,0.0,WeatherDisplay:10.37,2013-02-22 01:46:00,
2013-02-21 19:51:00,26.0,22.7,30.22,NNE,22,5.8,5.8,87,0.00,CLR,,0.00,0.0,WeatherDisplay:10.37,2013-02-22 01:51:00,
2013-02-21 19:56:00,26.1,22.8,30.22,NE,44,11.5,11.5,87,0.00,CLR,,0.00,0.0,WeatherDisplay:10.37,2013-02-22 01:56:00,
2013-02-21 20:01:00,26.1,22.8,30.22,NE,46,10.4,10.4,87,0.00,CLR,,0.00,0.0,WeatherDisplay:10.37,2013-02-22 02:01:00,
2013-02-21 20:06:00,26.1,22.8,30.21,NNE,21,11.5,11.5,87,0.00,CLR,,0.00,0.0,WeatherDisplay:10.37,2013-02-22 02:06:00,
2013-02-21 20:11:00,26.2,22.6,30.20,NE,38,10.4,10.4,86,0.00,CLR,,0.00,0.0,WeatherDisplay:10.37,2013-02-22 02:11:00,
2013-02-21 20:16:00,26.2,22.6,30.20,NNE,29,12.7,12.7,86,0.00,CLR,,0.00,0.0,WeatherDisplay:10.37,2013-02-22 02:16:00,
2013-02-21 20:21:00,26.2,22.6,30.20,North,352,10.0,10.0,86,0.00,CLR,,0.00,0.0,WeatherDisplay:10.37,2013-02-22 02:21:00,
2013-02-21 20:26:00,26.1,22.5,30.19,NE,39,10.4,10.4,86,0.00,CLR,,0.00,0.0,WeatherDisplay:10.37,2013-02-22 02:26:00,
2013-02-21 20:31:00,26.0,22.4,30.18,NNE,14,15.0,15.0,86,0.00,CLR,,0.00,0.0,WeatherDisplay:10.37,2013-02-22 02:31:00,
2013-02-21 20:36:00,25.9,22.3,30.17,NE,41,11.0,11.0,86,0.00,CLR,,0.00,0.0,WeatherDisplay:10.37,2013-02-22 02:36:00,
2013-02-21 20:41:00,25.9,22.3,30.17,NE,35,6.9,6.9,86,0.00,CLR,,0.00,0.0,WeatherDisplay:10.37,2013-02-22 02:41:00,
2013-02-21 20:46:00,25.8,22.2,30.16,NE,42,16.1,16.1,86,0.00,CLR,,0.00,0.0,WeatherDisplay:10.37,2013-02-22 02:46:00,
2013-02-21 20:51:00,25.8,22.2,30.17,NNE,33,10.4,10.4,86,0.00,CLR,,0.00,0.0,WeatherDisplay:10.37,2013-02-22 02:51:00,
2013-02-21 20:56:00,25.7,22.1,30.17,NE,43,16.1,16.1,86,0.00,CLR,,0.00,0.0,WeatherDisplay:10.37,2013-02-22 02:56:00,
2013-02-21 21:01:00,25.7,21.8,30.17,NE,42,11.5,11.5,85,0.00,CLR,,0.00,0.0,WeatherDisplay:10.37,2013-02-22 03:01:00,
2013-02-21 21:06:00,25.7,22.1,30.17,North,360,7.0,7.0,86,0.00,CLR,,0.00,0.0,WeatherDisplay:10.37,2013-02-22 03:06:00,
2013-02-21 21:11:00,25.7,21.8,30.17,NE,36,16.1,16.1,85,0.00,CLR,,0.00,0.0,WeatherDisplay:10.37,2013-02-22 03:11:00,
2013-02-21 21:16:00,25.6,21.7,30.17,NE,41,13.8,13.8,85,0.00,CLR,,0.00,0.0,WeatherDisplay:10.37,2013-02-22 03:16:00,
2013-02-21 21:21:00,25.6,21.7,30.17,NE,43,11.5,11.5,85,0.00,CLR,,0.00,0.0,WeatherDisplay:10.37,2013-02-22 03:21:00,
2013-02-21 21:26:00,25.5,21.9,30.17,NNE,28,9.0,9.0,86,0.00,CLR,,0.00,0.0,WeatherDisplay:10.37,2013-02-22 03:26:00,
2013-02-21 21:31:00,25.6,22.0,30.17,NE,40,9.2,9.2,86,0.00,CLR,,0.00,0.0,WeatherDisplay:10.37,2013-02-22 03:31:00,
2013-02-21 21:36:00,25.6,21.7,30.17,NE,36,11.5,11.5,85,0.00,CLR,,0.00,0.0,WeatherDisplay:10.37,2013-02-22 03:36:00,
2013-02-21 21:41:00,25.6,21.7,30.18,NE,38,5.8,5.8,85,0.00,CLR,,0.00,0.0,WeatherDisplay:10.37,2013-02-22 03:41:00,
2013-02-21 21:46:00,25.7,21.8,30.19,NE,54,8.1,8.1,85,0.00,CLR,,0.00,0.0,WeatherDisplay:10.37,2013-02-22 03:46:00,
2013-02-21 21:51:00,25.7,21.8,30.17,NE,40,13.8,13.8,85,0.00,CLR,,0.00,0.0,WeatherDisplay:10.37,2013-02-22 03:51:00,
2013-02-21 21:56:00,25.7,21.8,30.16,NE,38,11.5,11.5,85,0.00,CLR,,0.00,0.0,WeatherDisplay:10.37,2013-02-22 03:56:00,
2013-02-21 22:01:00,25.7,21.8,30.16,NE,36,12.7,12.7,85,0.00,CLR,,0.00,0.0,WeatherDisplay:10.37,2013-02-22 04:01:00,
2013-02-21 22:06:00,25.7,21.8,30.16,NE,35,15.0,15.0,85,0.00,CLR,,0.00,0.0,WeatherDisplay:10.37,2013-02-22 04:06:00,
2013-02-21 22:11:00,25.7,21.8,30.16,NE,48,13.8,13.8,85,0.00,CLR,,0.00,0.0,WeatherDisplay:10.37,2013-02-22 04:11:00,
2013-02-21 22:16:00,25.6,21.7,30.14,North,11,13.8,13.8,85,0.00,CLR,,0.00,0.0,WeatherDisplay:10.37,2013-02-22 04:16:00,
2013-02-21 22:21:00,25.5,21.9,30.14,NE,38,13.0,13.0,86,0.00,CLR,,0.00,0.0,WeatherDisplay:10.37,2013-02-22 04:21:00,
2013-02-21 22:26:00,25.5,21.9,30.15,NE,42,9.2,9.2,86,0.00,CLR,,0.00,0.0,WeatherDisplay:10.37,2013-02-22 04:26:00,
2013-02-21 22:31:00,25.5,21.9,30.15,NNE,26,11.5,11.5,86,0.00,CLR,,0.00,0.0,WeatherDisplay:10.37,2013-02-22 04:31:00,
2013-02-21 22:36:00,25.6,22.0,30.15,NE,42,16.1,16.1,86,0.00,CLR,,0.00,0.0,WeatherDisplay:10.37,2013-02-22 04:36:00,
2013-02-21 22:41:00,25.5,21.9,30.15,NNE,21,15.0,15.0,86,0.00,CLR,,0.00,0.0,WeatherDisplay:10.37,2013-02-22 04:41:00,
2013-02-21 22:46:00,25.5,21.9,30.15,NE,44,16.1,16.1,86,0.00,CLR,,0.00,0.0,WeatherDisplay:10.37,2013-02-22 04:46:00,
2013-02-21 22:51:00,25.5,21.9,30.15,NE,46,12.7,12.7,86,0.00,CLR,,0.00,0.0,WeatherDisplay:10.37,2013-02-22 04:51:00,
2013-02-21 22:56:00,25.4,21.8,30.14,NE,47,10.4,10.4,86,0.00,CLR,,0.00,0.0,WeatherDisplay:10.37,2013-02-22 04:56:00,
2013-02-21 23:00:00,25.4,21.8,30.14,NE,39,9.0,15.0,86,0.00,CLR,,0.00,0.0,WeatherDisplay:10.37,2013-02-22 05:00:00,
2013-02-21 23:05:00,25.4,21.8,30.15,NE,46,16.1,16.1,86,0.00,CLR,,0.00,0.0,WeatherDisplay:10.37,2013-02-22 05:05:00,
2013-02-21 23:10:00,25.4,21.8,30.15,NNE,25,13.8,13.8,86,0.00,CLR,,0.00,0.0,WeatherDisplay:10.37,2013-02-22 05:10:00,
2013-02-21 23:15:00,25.3,21.7,30.16,NE,46,12.7,12.7,86,0.00,CLR,,0.00,0.0,WeatherDisplay:10.37,2013-02-22 05:15:00,
2013-02-21 23:20:00,25.4,21.8,30.15,NE,41,10.4,10.4,86,0.00,CLR,,0.00,0.0,WeatherDisplay:10.37,2013-02-22 05:20:00,
2013-02-21 23:25:00,25.3,21.7,30.15,NE,42,13.0,13.0,86,0.00,CLR,,0.00,0.0,WeatherDisplay:10.37,2013-02-22 05:25:00,
2013-02-21 23:30:00,25.4,22.1,30.14,NNE,32,11.5,11.5,87,0.00,CLR,,0.00,0.0,WeatherDisplay:10.37,2013-02-22 05:30:00,
2013-02-21 23:35:00,25.4,22.1,30.14,NE,46,6.0,6.0,87,0.00,CLR,,0.00,0.0,WeatherDisplay:10.37,2013-02-22 05:35:00,
2013-02-21 23:40:00,25.4,22.1,30.14,NE,45,6.9,6.9,87,0.00,CLR,,0.00,0.0,WeatherDisplay:10.37,2013-02-22 05:40:00,
2013-02-21 23:45:00,25.5,22.2,30.14,NE,42,10.4,10.4,87,0.00,CLR,,0.00,0.0,WeatherDisplay:10.37,2013-02-22 05:45:00,
2013-02-21 23:50:00,25.5,22.2,30.14,NE,44,7.0,7.0,87,0.00,CLR,,0.00,0.0,WeatherDisplay:10.37,2013-02-22 05:50:00,
2013-02-21 23:55:00,25.5,22.2,30.13,NE,44,14.0,14.0,87,0.00,CLR,,0.00,0.0,WeatherDisplay:10.37,2013-02-22 05:55:00,